»·PEaware :: SWA3930 KABQ-KPHX

SWA3930 :: KABQ-KPHX

FLIGHT INFORMATION

Flight Status: Arrived
Operator:
Southwest Airlines
More flights by this operator :: More flights under this callsign
Pilot: Tanner C. (11250)
Aircraft: BOEING 737-800
(B738)
More flights by this aircraft type
Origin: KABQ Albuquerque Intl Sunport
United States
Destination: KPHX Phoenix Sky Harbor Intl
United States
More flights between these airports :: More routes between these airports
Route: +LARGO3 ZUN BUNTR3
File this flight plan on PilotEdge
Remarks:
Altitude:
(Current/Filed)
33,000ft
Speed:
(Current/Filed)
410kts
Departed: 13-Jan-18 01:14 PM
Arrived: 13-Jan-18 02:11 PM
Distance/Time
Traveled:
285nm/0:56
Distance/Time
To Go:
Arrived

Flight Plot

Page will automatically refresh every two minutes.

Flight plan parsing failed; only flown route is shown


Map Options




Map Legend


Flown Route
Filed Route
Departure Airport
Arrival Airport
Navaid (VOR, NDB)
Fix

Horizontal Profiles

Position Reports

Time Latitude Longitude Heading Altitude Ground
Speed
13-Jan-18 12:51 35.046901 -106.616388 11 5313ft 0kts
13-Jan-18 12:52 35.046901 -106.616388 11 5313ft 0kts
13-Jan-18 12:53 35.046901 -106.616388 11 5313ft 0kts
13-Jan-18 12:54 35.046901 -106.616388 11 5313ft 0kts
13-Jan-18 12:55 35.046901 -106.616388 11 5313ft 0kts
13-Jan-18 12:56 35.046901 -106.616388 11 5313ft 0kts
13-Jan-18 12:57 35.046901 -106.616388 11 5313ft 0kts
13-Jan-18 12:58 35.046901 -106.616388 11 5313ft 0kts
13-Jan-18 12:59 35.046901 -106.616388 11 5313ft 0kts
13-Jan-18 13:00 35.046901 -106.616388 11 5313ft 0kts
13-Jan-18 13:01 35.046901 -106.616388 11 5313ft 0kts
13-Jan-18 13:02 35.046901 -106.616388 11 5313ft 0kts
13-Jan-18 13:03 35.046901 -106.616388 11 5313ft 0kts
13-Jan-18 13:04 35.046901 -106.616388 11 5313ft 0kts
13-Jan-18 13:05 35.046901 -106.616388 11 5313ft 0kts
13-Jan-18 13:06 35.046901 -106.616388 11 5313ft 0kts
13-Jan-18 13:07 35.046901 -106.616388 11 5313ft 0kts
13-Jan-18 13:08 35.046057 -106.616806 78 5312ft 0kts
13-Jan-18 13:09 35.046057 -106.616806 78 5312ft 0kts
13-Jan-18 13:10 35.046057 -106.616806 78 5312ft 0kts
13-Jan-18 13:11 35.046057 -106.616806 78 5312ft 0kts
13-Jan-18 13:12 35.046058 -106.616802 78 5312ft 0kts
13-Jan-18 13:13 35.045896 -106.614695 129 5316ft 2kts
13-Jan-18 13:14 35.045643 -106.619837 268 5305ft 13kts
13-Jan-18 13:15 35.045614 -106.620496 266 5304ft 0kts
13-Jan-18 13:16 35.045614 -106.620496 266 5304ft 0kts
13-Jan-18 13:17 35.045607 -106.620627 265 5304ft 3kts
13-Jan-18 13:18 35.044760 -106.621399 177 5301ft 10kts
13-Jan-18 13:19 35.044348 -106.620807 92 5303ft 3kts
13-Jan-18 13:20 35.044337 -106.618540 88 5309ft 58kts
13-Jan-18 13:21 35.038076 -106.572741 130 6710ft 169kts
13-Jan-18 13:22 34.994694 -106.568905 187 8552ft 172kts
13-Jan-18 13:23 34.942412 -106.583676 221 10221ft 222kts
13-Jan-18 13:24 34.932750 -106.659566 277 11917ft 276kts
13-Jan-18 13:25 34.942609 -106.760357 277 14081ft 321kts
13-Jan-18 13:26 34.950804 -106.869783 278 17500ft 333kts
13-Jan-18 13:27 34.957130 -106.984657 278 20746ft 351kts
13-Jan-18 13:28 34.962059 -107.105503 278 23658ft 370kts
13-Jan-18 13:29 34.966127 -107.233122 278 26374ft 387kts
13-Jan-18 13:30 34.969722 -107.363381 278 29456ft 384kts
13-Jan-18 13:31 34.972429 -107.491397 278 32057ft 378kts
13-Jan-18 13:32 34.975601 -107.624691 278 32392ft 417kts
13-Jan-18 13:33 34.980295 -107.763279 278 32381ft 443kts
13-Jan-18 13:34 34.985392 -107.905010 278 32380ft 442kts
13-Jan-18 13:35 34.990754 -108.050818 278 32379ft 442kts
13-Jan-18 13:36 34.992444 -108.197953 274 32379ft 446kts
13-Jan-18 13:37 34.988628 -108.346473 272 32373ft 447kts
13-Jan-18 13:38 34.976421 -108.496515 274 32377ft 446kts
13-Jan-18 13:39 34.973703 -108.639074 275 32385ft 451kts
13-Jan-18 13:40 34.971660 -108.786433 275 32380ft 456kts
13-Jan-18 13:41 34.969311 -108.940692 275 32380ft 456kts
13-Jan-18 13:42 34.966784 -109.094823 275 32379ft 456kts
13-Jan-18 13:43 34.933600 -109.245129 252 32380ft 478kts
13-Jan-18 13:44 34.882119 -109.384174 252 32365ft 477kts
13-Jan-18 13:45 34.828530 -109.530141 252 32365ft 478kts
13-Jan-18 13:46 34.779304 -109.663799 252 32367ft 478kts
13-Jan-18 13:47 34.727960 -109.802522 252 32370ft 478kts
13-Jan-18 13:48 34.676565 -109.940856 252 32370ft 478kts
13-Jan-18 13:49 34.626296 -110.075637 250 32394ft 456kts
13-Jan-18 13:50 34.576719 -110.208002 249 32393ft 439kts
13-Jan-18 13:51 34.527566 -110.338839 249 32412ft 459kts
13-Jan-18 13:52 34.473689 -110.481467 249 32397ft 468kts
13-Jan-18 13:53 34.420106 -110.622759 249 32398ft 468kts
13-Jan-18 13:54 34.372836 -110.746733 249 32372ft 420kts
13-Jan-18 13:55 34.307781 -110.856575 230 30682ft 437kts
13-Jan-18 13:56 34.227690 -110.959124 230 27500ft 418kts
13-Jan-18 13:57 34.151739 -111.056916 230 23993ft 395kts
13-Jan-18 13:58 34.080210 -111.148860 230 20592ft 374kts
13-Jan-18 13:59 34.012133 -111.236183 230 17283ft 356kts
13-Jan-18 14:00 33.946714 -111.319925 229 14168ft 338kts
13-Jan-18 14:01 33.890929 -111.391096 229 14118ft 303kts
13-Jan-18 14:02 33.834985 -111.462390 229 14115ft 305kts
13-Jan-18 14:03 33.785320 -111.541533 235 13226ft 297kts
13-Jan-18 14:04 33.735944 -111.618659 235 12004ft 279kts
13-Jan-18 14:05 33.694588 -111.683025 234 12031ft 256kts
13-Jan-18 14:06 33.646673 -111.758698 234 10752ft 293kts
13-Jan-18 14:07 33.600149 -111.832901 234 10013ft 285kts
13-Jan-18 14:08 33.568454 -111.910430 268 9748ft 281kts
13-Jan-18 14:09 33.562415 -111.992713 259 8767ft 245kts
13-Jan-18 14:10 33.552138 -112.064522 260 7226ft 222kts
13-Jan-18 14:11 33.541624 -112.124254 242 6183ft 181kts
13-Jan-18 14:12 33.501076 -112.133636 172 4973ft 175kts
13-Jan-18 14:13 33.465295 -112.130382 168 3727ft 165kts
13-Jan-18 14:14 33.441178 -112.102913 94 2312ft 142kts
13-Jan-18 14:15 33.440904 -112.066229 88 1766ft 149kts
13-Jan-18 14:16 33.440868 -112.029585 88 1150ft 139kts
13-Jan-18 14:17 33.440659 -112.013820 135 1125ft 11kts
13-Jan-18 14:18 33.439793 -112.013131 101 1126ft 11kts

Navigation Log

Ident Type
Flight plan parsing failed, navigation log unavailable